sensor_id;sensor_type;location;lat;lon;timestamp;pressure;altitude;pressure_sealevel;temperature;humidity
64243;BME280;50573;51.512;5.386;2022-12-29T00:00:28;99918.31;;;11.31;98.88
64243;BME280;50573;51.512;5.386;2022-12-29T00:10:32;99917.72;;;11.27;96.84
64243;BME280;50573;51.512;5.386;2022-12-29T00:20:37;99890.50;;;11.08;97.21
64243;BME280;50573;51.512;5.386;2022-12-29T00:31:00;99885.41;;;10.74;100.00
64243;BME280;50573;51.512;5.386;2022-12-29T00:41:21;99884.50;;;10.59;100.00
64243;BME280;50573;51.512;5.386;2022-12-29T00:51:42;99872.84;;;10.50;100.00
64243;BME280;50573;51.512;5.386;2022-12-29T01:01:46;99873.28;;;10.57;100.00
64243;BME280;50573;51.512;5.386;2022-12-29T01:11:51;99834.88;;;10.64;100.00
64243;BME280;50573;51.512;5.386;2022-12-29T01:21:54;99835.91;;;10.76;100.00
64243;BME280;50573;51.512;5.386;2022-12-29T01:31:59;99830.13;;;10.92;100.00
64243;BME280;50573;51.512;5.386;2022-12-29T01:42:02;99812.69;;;10.98;100.00
64243;BME280;50573;51.512;5.386;2022-12-29T01:52:07;99817.94;;;11.20;98.95
64243;BME280;50573;51.512;5.386;2022-12-29T02:02:10;99828.81;;;11.29;98.11
64243;BME280;50573;51.512;5.386;2022-12-29T02:12:16;99819.84;;;11.38;95.84
64243;BME280;50573;51.512;5.386;2022-12-29T02:22:27;99814.94;;;11.51;94.65
64243;BME280;50573;51.512;5.386;2022-12-29T02:32:38;99793.56;;;11.49;94.42
64243;BME280;50573;51.512;5.386;2022-12-29T02:42:49;99798.59;;;11.42;95.40
64243;BME280;50573;51.512;5.386;2022-12-29T02:52:59;99788.63;;;11.39;95.44
64243;BME280;50573;51.512;5.386;2022-12-29T03:03:17;99773.34;;;11.32;95.99
64243;BME280;50573;51.512;5.386;2022-12-29T03:13:28;99781.75;;;11.19;96.09
64243;BME280;50573;51.512;5.386;2022-12-29T03:23:50;99776.88;;;11.23;95.97
64243;BME280;50573;51.512;5.386;2022-12-29T03:33:55;99755.88;;;11.15;95.45
64243;BME280;50573;51.512;5.386;2022-12-29T03:43:59;99774.56;;;10.98;96.13
64243;BME280;50573;51.512;5.386;2022-12-29T03:54:04;99784.28;;;10.81;97.42
64243;BME280;50573;51.512;5.386;2022-12-29T04:04:07;99796.56;;;10.86;97.47
64243;BME280;50573;51.512;5.386;2022-12-29T04:14:12;99788.41;;;10.59;100.00
64243;BME280;50573;51.512;5.386;2022-12-29T04:24:16;99818.41;;;10.32;100.00
64243;BME280;50573;51.512;5.386;2022-12-29T04:34:24;99808.25;;;10.23;100.00
64243;BME280;50573;51.512;5.386;2022-12-29T04:44:27;99835.78;;;10.16;98.91
64243;BME280;50573;51.512;5.386;2022-12-29T04:54:47;99839.19;;;9.99;98.24
64243;BME280;50573;51.512;5.386;2022-12-29T05:04:53;99847.66;;;10.01;95.60
64243;BME280;50573;51.512;5.386;2022-12-29T05:14:58;99871.09;;;9.98;93.98
64243;BME280;50573;51.512;5.386;2022-12-29T05:25:02;99870.78;;;10.05;92.25
64243;BME280;50573;51.512;5.386;2022-12-29T05:35:11;99878.09;;;10.17;92.76
64243;BME280;50573;51.512;5.386;2022-12-29T05:45:15;99882.94;;;10.31;91.68
64243;BME280;50573;51.512;5.386;2022-12-29T05:55:29;99902.34;;;10.42;89.05
64243;BME280;50573;51.512;5.386;2022-12-29T06:05:33;99912.31;;;10.54;88.26
64243;BME280;50573;51.512;5.386;2022-12-29T06:15:38;99918.97;;;10.62;87.30
64243;BME280;50573;51.512;5.386;2022-12-29T06:25:42;99904.16;;;10.63;86.43
64243;BME280;50573;51.512;5.386;2022-12-29T06:35:47;99904.59;;;10.53;86.78
64243;BME280;50573;51.512;5.386;2022-12-29T06:45:51;99888.09;;;10.47;86.21
64243;BME280;50573;51.512;5.386;2022-12-29T06:55:55;99898.72;;;10.45;87.18
64243;BME280;50573;51.512;5.386;2022-12-29T07:05:58;99915.22;;;10.60;85.68
64243;BME280;50573;51.512;5.386;2022-12-29T07:16:06;99935.31;;;10.62;83.61
64243;BME280;50573;51.512;5.386;2022-12-29T07:26:11;99953.78;;;10.67;83.29
64243;BME280;50573;51.512;5.386;2022-12-29T07:36:16;99978.75;;;10.57;81.31
64243;BME280;50573;51.512;5.386;2022-12-29T07:46:19;99973.72;;;10.55;81.55
64243;BME280;50573;51.512;5.386;2022-12-29T07:56:44;99969.97;;;10.62;81.35
64243;BME280;50573;51.512;5.386;2022-12-29T08:06:47;99985.09;;;10.63;81.75
64243;BME280;50573;51.512;5.386;2022-12-29T08:16:51;99980.88;;;10.71;80.30
64243;BME280;50573;51.512;5.386;2022-12-29T08:26:54;99985.28;;;10.77;78.64
64243;BME280;50573;51.512;5.386;2022-12-29T08:36:59;99989.53;;;10.87;78.09
64243;BME280;50573;51.512;5.386;2022-12-29T08:47:02;99997.84;;;11.02;76.82
64243;BME280;50573;51.512;5.386;2022-12-29T08:57:06;99987.22;;;11.04;77.44
64243;BME280;50573;51.512;5.386;2022-12-29T09:07:23;100010.25;;;11.03;77.26
64243;BME280;50573;51.512;5.386;2022-12-29T09:17:28;100025.84;;;10.93;79.09
64243;BME280;50573;51.512;5.386;2022-12-29T09:27:46;100023.38;;;10.59;82.49
64243;BME280;50573;51.512;5.386;2022-12-29T09:37:51;100024.53;;;10.40;85.25
64243;BME280;50573;51.512;5.386;2022-12-29T09:47:54;100052.41;;;10.53;85.09
64243;BME280;50573;51.512;5.386;2022-12-29T09:58:01;100081.72;;;10.40;86.80
64243;BME280;50573;51.512;5.386;2022-12-29T10:08:18;100108.06;;;10.22;89.48
64243;BME280;50573;51.512;5.386;2022-12-29T10:18:43;100126.50;;;9.96;92.58
64243;BME280;50573;51.512;5.386;2022-12-29T10:28:52;100140.75;;;9.78;95.33
64243;BME280;50573;51.512;5.386;2022-12-29T10:39:04;100171.16;;;9.86;95.56
64243;BME280;50573;51.512;5.386;2022-12-29T10:49:14;100191.75;;;9.74;95.45
64243;BME280;50573;51.512;5.386;2022-12-29T10:59:26;100207.47;;;9.92;95.30
64243;BME280;50573;51.512;5.386;2022-12-29T11:09:34;100215.50;;;9.74;97.81
64243;BME280;50573;51.512;5.386;2022-12-29T11:19:45;100208.63;;;9.69;96.95
64243;BME280;50573;51.512;5.386;2022-12-29T11:29:49;100237.72;;;9.94;94.00
64243;BME280;50573;51.512;5.386;2022-12-29T11:39:57;100232.91;;;10.11;91.92
64243;BME280;50573;51.512;5.386;2022-12-29T11:50:03;100236.69;;;10.13;91.38
64243;BME280;50573;51.512;5.386;2022-12-29T12:00:16;100256.59;;;10.23;91.15
64243;BME280;50573;51.512;5.386;2022-12-29T12:10:24;100251.63;;;10.30;89.42
64243;BME280;50573;51.512;5.386;2022-12-29T12:20:38;100248.09;;;10.42;88.13
64243;BME280;50573;51.512;5.386;2022-12-29T12:30:45;100249.16;;;10.66;85.88
64243;BME280;50573;51.512;5.386;2022-12-29T12:41:04;100249.06;;;10.79;84.12
64243;BME280;50573;51.512;5.386;2022-12-29T12:51:15;100240.75;;;10.82;81.14
64243;BME280;50573;51.512;5.386;2022-12-29T13:01:37;100262.78;;;10.97;80.90
64243;BME280;50573;51.512;5.386;2022-12-29T13:11:51;100281.88;;;10.54;86.27
64243;BME280;50573;51.512;5.386;2022-12-29T13:22:08;100298.22;;;10.11;91.89
64243;BME280;50573;51.512;5.386;2022-12-29T13:32:23;100314.25;;;9.71;97.31
64243;BME280;50573;51.512;5.386;2022-12-29T13:42:31;100312.34;;;9.59;100.00
64243;BME280;50573;51.512;5.386;2022-12-29T13:52:37;100317.03;;;9.46;100.00
64243;BME280;50573;51.512;5.386;2022-12-29T14:03:10;100330.53;;;9.37;100.00
64243;BME280;50573;51.512;5.386;2022-12-29T14:13:17;100335.53;;;9.38;100.00
64243;BME280;50573;51.512;5.386;2022-12-29T14:23:37;100337.13;;;9.36;100.00
64243;BME280;50573;51.512;5.386;2022-12-29T14:44:24;100344.00;;;9.53;97.75
64243;BME280;50573;51.512;5.386;2022-12-29T14:54:46;100352.38;;;9.46;96.81
64243;BME280;50573;51.512;5.386;2022-12-29T15:04:53;100356.16;;;9.48;96.51
64243;BME280;50573;51.512;5.386;2022-12-29T15:15:01;100360.28;;;9.40;94.61
64243;BME280;50573;51.512;5.386;2022-12-29T15:25:15;100354.97;;;9.37;91.94
64243;BME280;50573;51.512;5.386;2022-12-29T15:35:25;100376.78;;;9.21;91.06
64243;BME280;50573;51.512;5.386;2022-12-29T15:45:32;100377.88;;;9.11;91.36
64243;BME280;50573;51.512;5.386;2022-12-29T15:55:38;100390.25;;;8.99;91.74
64243;BME280;50573;51.512;5.386;2022-12-29T16:05:49;100409.41;;;8.80;92.35
64243;BME280;50573;51.512;5.386;2022-12-29T16:16:00;100403.78;;;8.58;91.55
64243;BME280;50573;51.512;5.386;2022-12-29T16:26:15;100444.06;;;8.60;91.32
64243;BME280;50573;51.512;5.386;2022-12-29T16:36:28;100444.28;;;8.53;89.87
64243;BME280;50573;51.512;5.386;2022-12-29T16:46:33;100458.44;;;8.44;90.30
64243;BME280;50573;51.512;5.386;2022-12-29T16:56:36;100460.22;;;8.34;89.85
64243;BME280;50573;51.512;5.386;2022-12-29T17:06:41;100462.75;;;8.25;90.39
64243;BME280;50573;51.512;5.386;2022-12-29T17:16:44;100473.84;;;8.15;90.30
64243;BME280;50573;51.512;5.386;2022-12-29T17:26:51;100491.19;;;8.01;89.61
64243;BME280;50573;51.512;5.386;2022-12-29T17:36:55;100506.19;;;7.90;89.93
64243;BME280;50573;51.512;5.386;2022-12-29T17:46:59;100518.91;;;7.73;89.95
64243;BME280;50573;51.512;5.386;2022-12-29T17:57:02;100531.44;;;7.67;90.85
64243;BME280;50573;51.512;5.386;2022-12-29T18:07:10;100535.56;;;7.56;91.33
64243;BME280;50573;51.512;5.386;2022-12-29T18:17:13;100553.19;;;7.44;92.38
64243;BME280;50573;51.512;5.386;2022-12-29T18:27:17;100559.03;;;7.43;91.96
64243;BME280;50573;51.512;5.386;2022-12-29T18:37:22;100569.97;;;7.39;92.16
64243;BME280;50573;51.512;5.386;2022-12-29T18:47:27;100576.13;;;7.40;92.71
64243;BME280;50573;51.512;5.386;2022-12-29T18:57:30;100578.84;;;7.40;93.05
64243;BME280;50573;51.512;5.386;2022-12-29T19:07:35;100591.22;;;7.41;93.08
64243;BME280;50573;51.512;5.386;2022-12-29T19:17:38;100597.75;;;7.43;93.12
64243;BME280;50573;51.512;5.386;2022-12-29T19:27:42;100598.09;;;7.45;92.47
64243;BME280;50573;51.512;5.386;2022-12-29T19:37:45;100612.81;;;7.44;92.38
64243;BME280;50573;51.512;5.386;2022-12-29T19:47:51;100600.09;;;7.41;91.96
64243;BME280;50573;51.512;5.386;2022-12-29T19:57:54;100625.72;;;7.37;91.34
64243;BME280;50573;51.512;5.386;2022-12-29T20:07:59;100630.78;;;7.35;91.18
64243;BME280;50573;51.512;5.386;2022-12-29T20:18:02;100630.47;;;7.33;90.29
64243;BME280;50573;51.512;5.386;2022-12-29T20:28:16;100648.28;;;7.30;91.13
64243;BME280;50573;51.512;5.386;2022-12-29T20:38:19;100655.22;;;7.31;89.99
64243;BME280;50573;51.512;5.386;2022-12-29T20:48:24;100650.22;;;7.30;90.05
64243;BME280;50573;51.512;5.386;2022-12-29T20:58:27;100656.91;;;7.25;90.11
64243;BME280;50573;51.512;5.386;2022-12-29T21:08:32;100675.59;;;7.20;90.20
64243;BME280;50573;51.512;5.386;2022-12-29T21:18:35;100681.75;;;7.20;90.36
64243;BME280;50573;51.512;5.386;2022-12-29T21:28:40;100674.09;;;7.15;90.46
64243;BME280;50573;51.512;5.386;2022-12-29T21:38:44;100690.78;;;7.10;90.79
64243;BME280;50573;51.512;5.386;2022-12-29T21:48:48;100692.81;;;7.06;91.04
64243;BME280;50573;51.512;5.386;2022-12-29T21:58:51;100689.09;;;6.96;91.24
64243;BME280;50573;51.512;5.386;2022-12-29T22:09:13;100708.09;;;6.93;91.63
64243;BME280;50573;51.512;5.386;2022-12-29T22:19:33;100738.75;;;6.86;91.42
64243;BME280;50573;51.512;5.386;2022-12-29T22:29:37;100767.88;;;6.79;91.68
64243;BME280;50573;51.512;5.386;2022-12-29T22:39:41;100792.31;;;6.72;91.54
64243;BME280;50573;51.512;5.386;2022-12-29T22:49:46;100791.53;;;6.71;91.33
64243;BME280;50573;51.512;5.386;2022-12-29T22:59:49;100797.84;;;6.61;91.45
64243;BME280;50573;51.512;5.386;2022-12-29T23:09:53;100805.47;;;6.70;91.63
64243;BME280;50573;51.512;5.386;2022-12-29T23:19:56;100811.31;;;6.65;91.81
64243;BME280;50573;51.512;5.386;2022-12-29T23:30:01;100832.63;;;6.63;92.11
64243;BME280;50573;51.512;5.386;2022-12-29T23:40:05;100843.84;;;6.61;92.37
64243;BME280;50573;51.512;5.386;2022-12-29T23:50:09;100853.13;;;6.60;92.08
